Challenge Peak — 9V9589 — position and weather

sailwx.info

Track history (hours):
 
Tides and Currents Weather Stations Pressure Air Temp Water Temp Dewpoint Dewpoint Depression Visibility Wind Speed Wind Dir Waves Ship Positions

Challenge Peak

Last reported at 2017-Apr-23 10:28 UTC. Time now 2017-May-01 06:13 UTC.
Position S 29°17' E 032°36'.

Length 182 m; draft 8.8 m.

Type: Tanker. MMSI: 566433000.

Date/timePositionNaut miles runAvg speedWind from/ knotsBaromVisibWave heightAir tempDewpointWater temp
2017-Apr-23 10:28S 29°17' E 032°36'510.5
2017-Apr-23 09:59S 29°21' E 032°32'510.4
2017-Apr-23 09:30S 29°25' E 032°29'510.1
2017-Apr-23 09:00S 29°29' E 032°25'11 9.5
2017-Apr-23 07:48S 29°36' E 032°15'3 9.9
2017-Apr-23 07:27S 29°37' E 032°11'7 9.9
2017-Apr-23 06:44S 29°38' E 032°03'310.0
2017-Apr-23 06:26S 29°39' E 031°59'4 9.6
2017-Apr-23 06:00S 29°40' E 031°55'4 9.0
2017-Apr-23 05:30S 29°41' E 031°50'4 8.8
2017-Apr-23 05:00S 29°42' E 031°45'510.1
2017-Apr-23 04:30S 29°43' E 031°39'713.3
2017-Apr-23 04:00S 29°45' E 031°32'713.7
2017-Apr-23 03:30S 29°46' E 031°24'611.5
2017-Apr-23 03:00S 29°48' E 031°18'510.8
2017-Apr-23 02:30S 29°49' E 031°12'510.8
2017-Apr-23 02:00S 29°50' E 031°06'4 8.2
2017-Apr-23 01:30S 29°53' E 031°02'0 0.2
2017-Apr-23 01:00S 29°53' E 031°02'0 0.0
2017-Apr-23 00:30S 29°53' E 031°02'0 0.0
2017-Apr-22 23:57S 29°53' E 031°02'0 0.0
2017-Apr-22 23:30S 29°53' E 031°02'0 0.0
2017-Apr-22 23:00S 29°53' E 031°02'0 0.0
2017-Apr-22 22:30S 29°53' E 031°02'0 0.0
2017-Apr-22 22:00S 29°53' E 031°02'0 0.0
2017-Apr-22 21:30S 29°53' E 031°02'0 0.0
2017-Apr-22 21:00S 29°53' E 031°02'0 0.0
2017-Apr-22 20:30S 29°53' E 031°02'0 0.0
2017-Apr-22 19:57S 29°53' E 031°02'0 0.0
2017-Apr-22 19:30S 29°53' E 031°02'0 0.0
2017-Apr-22 19:00S 29°53' E 031°02'0 0.0
2017-Apr-22 18:30S 29°53' E 031°02'0 0.0
2017-Apr-22 18:00S 29°53' E 031°02'0 0.0
2017-Apr-22 17:30S 29°53' E 031°02'0 0.0
2017-Apr-22 17:00S 29°53' E 031°02'0 0.0
2017-Apr-22 16:30S 29°53' E 031°02'0 0.0
2017-Apr-22 16:00S 29°53' E 031°02'0 0.0
2017-Apr-22 15:30S 29°53' E 031°02'0 0.0
2017-Apr-22 15:00S 29°53' E 031°02'0 0.0
2017-Apr-22 14:27S 29°53' E 031°02'0 0.0
2017-Apr-22 13:27S 29°53' E 031°02'0 0.0
2017-Apr-22 12:57S 29°53' E 031°02'0 0.0
2017-Apr-22 12:30S 29°53' E 031°02'0 0.0
2017-Apr-22 11:57S 29°53' E 031°02'0 0.0
2017-Apr-22 11:27S 29°53' E 031°02'0 0.0
2017-Apr-22 11:00S 29°53' E 031°02'0 0.0
2017-Apr-22 10:27S 29°53' E 031°02'0 0.0
2017-Apr-22 09:57S 29°53' E 031°02'0 0.0
2017-Apr-22 09:30S 29°53' E 031°02'0 0.0
2017-Apr-22 08:57S 29°53' E 031°02'0 0.0
2017-Apr-22 08:27S 29°53' E 031°02'0 0.0
2017-Apr-22 07:57S 29°53' E 031°02'0 0.0
2017-Apr-22 07:27S 29°53' E 031°02'0 0.0
2017-Apr-22 07:00S 29°53' E 031°02'0 0.0
2017-Apr-22 06:30S 29°53' E 031°02'0 0.0
2017-Apr-22 06:00S 29°53' E 031°02'0 0.0
2017-Apr-22 05:30S 29°53' E 031°02'0 0.0
2017-Apr-22 04:57S 29°53' E 031°02'0 0.0
2017-Apr-22 04:30S 29°53' E 031°02'0 0.0
2017-Apr-22 04:00S 29°53' E 031°02'0 0.0
2017-Apr-22 03:30S 29°53' E 031°02'0 0.0
2017-Apr-22 02:57S 29°53' E 031°02'0 0.0
2017-Apr-22 02:30S 29°53' E 031°02'0 0.0
2017-Apr-22 02:00S 29°53' E 031°02'0 0.0
2017-Apr-22 01:30S 29°53' E 031°02'0 0.0
2017-Apr-22 01:00S 29°53' E 031°02'0 0.0
2017-Apr-22 00:27S 29°53' E 031°02'0 0.0
2017-Apr-21 23:54S 29°53' E 031°02'0 0.0
2017-Apr-21 23:30S 29°53' E 031°02'0 0.0
2017-Apr-21 23:00S 29°53' E 031°02'0 0.0
2017-Apr-21 22:27S 29°53' E 031°02'0 0.0
2017-Apr-21 22:00S 29°53' E 031°02'0 0.0
2017-Apr-21 21:30S 29°53' E 031°02'0 0.0
2017-Apr-21 20:57S 29°53' E 031°02'0 0.0
2017-Apr-21 20:30S 29°53' E 031°02'0 0.0
2017-Apr-21 20:00S 29°53' E 031°02'0 0.0
2017-Apr-21 19:30S 29°53' E 031°02'0 0.0
2017-Apr-21 19:00S 29°53' E 031°02'0 0.0
2017-Apr-21 18:30S 29°53' E 031°02'0 0.0
2017-Apr-21 18:00S 29°53' E 031°02'0 0.0
2017-Apr-21 17:27S 29°53' E 031°02'0 0.0
2017-Apr-21 17:00S 29°53' E 031°02'0 0.0
2017-Apr-21 16:30S 29°53' E 031°02'0 0.0
2017-Apr-21 16:00S 29°53' E 031°02'0 0.0
2017-Apr-21 15:30S 29°53' E 031°02'0 0.0
2017-Apr-21 15:00S 29°53' E 031°02'0 0.0
2017-Apr-21 14:30S 29°53' E 031°02'0 0.0
2017-Apr-21 13:30S 29°53' E 031°02'0 0.0
2017-Apr-21 12:51S 29°53' E 031°02'0 0.0
2017-Apr-21 12:30S 29°53' E 031°02'0 0.0
2017-Apr-21 11:57S 29°53' E 031°02'0 0.0
2017-Apr-21 11:27S 29°53' E 031°02'0 0.0
2017-Apr-21 10:57S 29°53' E 031°02'0 0.0
2017-Apr-21 10:27S 29°53' E 031°02'0 0.0
2017-Apr-21 10:00S 29°53' E 031°02'0 0.2
2017-Apr-21 09:30S 29°53' E 031°02'1 2.4
2017-Apr-21 09:00S 29°53' E 031°03'5 9.2
2017-Apr-21 08:30S 29°49' E 031°06'1 3.0
2017-Apr-21 08:00S 29°47' E 031°07'1 1.5
2017-Apr-21 07:30S 29°47' E 031°07'1 1.8
2017-Apr-21 07:00S 29°46' E 031°08'0 0.7
2017-Apr-21 06:30S 29°46' E 031°08'1 1.1
2017-Apr-21 06:00S 29°45' E 031°09'1 1.0
2017-Apr-21 05:28S 29°45' E 031°09'0 0.1
2017-Apr-21 04:58S 29°45' E 031°09'0 0.1
2017-Apr-21 04:28S 29°45' E 031°09'0 0.0
2017-Apr-21 03:58S 29°45' E 031°09'0 0.0
2017-Apr-21 03:28S 29°45' E 031°09'0 0.0
2017-Apr-21 02:58S 29°45' E 031°09'0 0.0
2017-Apr-21 02:28S 29°45' E 031°09'0 0.0
2017-Apr-21 01:58S 29°45' E 031°09'0 0.0
2017-Apr-21 01:28S 29°45' E 031°09'0 0.0
2017-Apr-21 00:58S 29°45' E 031°09'0 0.0
2017-Apr-21 00:28S 29°45' E 031°09'0 0.1
2017-Apr-20 23:58S 29°45' E 031°09'0 0.1
2017-Apr-20 23:28S 29°45' E 031°09'0 0.0
2017-Apr-20 22:58S 29°45' E 031°09'0 0.0
2017-Apr-20 22:28S 29°45' E 031°09'0 0.1
2017-Apr-20 21:58S 29°45' E 031°09'0 0.0
2017-Apr-20 21:28S 29°45' E 031°09'0 0.0
2017-Apr-20 20:58S 29°45' E 031°09'0 0.0
2017-Apr-20 20:28S 29°45' E 031°09'0 0.0
2017-Apr-20 19:58S 29°45' E 031°09'0 0.1
2017-Apr-20 19:28S 29°45' E 031°09'0 0.1
2017-Apr-20 18:58S 29°45' E 031°09'0 0.0
2017-Apr-20 18:28S 29°45' E 031°09'0 0.1
2017-Apr-20 17:58S 29°45' E 031°09'0 0.1
2017-Apr-20 17:28S 29°45' E 031°09'0 0.0
2017-Apr-20 16:58S 29°45' E 031°09'0 0.0
2017-Apr-20 16:28S 29°45' E 031°09'0 0.0
2017-Apr-20 15:58S 29°45' E 031°09'0 0.0
2017-Apr-20 15:28S 29°45' E 031°09'0 0.1
2017-Apr-20 14:58S 29°45' E 031°09'0 0.0
2017-Apr-20 13:58S 29°45' E 031°09'0 0.0
2017-Apr-20 13:30S 29°45' E 031°09'0 0.6
2017-Apr-20 13:00S 29°45' E 031°09'2 3.6
2017-Apr-20 12:30S 29°45' E 031°11'3 7.0
2017-Apr-20 12:00S 29°44' E 031°15'4 8.4
2017-Apr-20 11:30S 29°41' E 031°18'4 8.3
2017-Apr-20 11:00S 29°38' E 031°22'4 8.3
2017-Apr-20 10:30S 29°36' E 031°26'4 8.0
2017-Apr-20 10:00S 29°34' E 031°30'4 7.9
2017-Apr-20 09:30S 29°32' E 031°34'4 7.5
2017-Apr-20 09:00S 29°30' E 031°37'0 0.9
2017-Apr-20 08:30S 29°30' E 031°37'1 1.6
2017-Apr-20 08:00S 29°31' E 031°36'1 1.7
2017-Apr-20 07:30S 29°31' E 031°36'1 1.8
2017-Apr-20 07:00S 29°32' E 031°35'1 1.8
2017-Apr-20 06:30S 29°32' E 031°34'1 1.9
2017-Apr-20 06:00S 29°33' E 031°33'1 1.9
2017-Apr-20 05:30S 29°34' E 031°32'1 1.9
2017-Apr-20 05:01S 29°34' E 031°32'1 1.8
2017-Apr-20 04:30S 29°35' E 031°31'1 1.7
2017-Apr-20 04:00S 29°35' E 031°30'1 1.7
2017-Apr-20 03:30S 29°36' E 031°29'1 1.7
2017-Apr-20 03:00S 29°36' E 031°29'1 1.7
2017-Apr-20 02:29S 29°37' E 031°28'1 1.5
2017-Apr-20 02:00S 29°38' E 031°27'1 1.5
2017-Apr-20 01:30S 29°38' E 031°27'1 1.3
2017-Apr-20 01:00S 29°39' E 031°26'1 1.2
2017-Apr-20 00:29S 29°39' E 031°26'1 1.2
2017-Apr-19 23:59S 29°40' E 031°25'1 1.0
2017-Apr-19 23:29S 29°40' E 031°25'1 1.0
2017-Apr-19 22:59S 29°40' E 031°25'1 1.1
2017-Apr-19 22:29S 29°41' E 031°24'1 1.0
2017-Apr-19 21:59S 29°41' E 031°24'1 1.1
2017-Apr-19 21:29S 29°42' E 031°23'1 1.2
2017-Apr-19 20:59S 29°42' E 031°23'1 1.2
2017-Apr-19 20:29S 29°43' E 031°23'1 1.2
2017-Apr-19 19:59S 29°43' E 031°23'1 1.3
2017-Apr-19 19:29S 29°44' E 031°23'1 1.5
2017-Apr-19 19:00S 29°45' E 031°23'1 1.5
2017-Apr-19 18:30S 29°45' E 031°23'1 1.5
2017-Apr-19 18:00S 29°46' E 031°22'1 1.5
2017-Apr-19 17:30S 29°47' E 031°22'1 1.5
2017-Apr-19 17:00S 29°47' E 031°22'1 1.5
2017-Apr-19 16:30S 29°48' E 031°21'3 6.2
2017-Apr-19 16:00S 29°46' E 031°24'510.3
2017-Apr-19 15:31S 29°43' E 031°28'510.1
2017-Apr-19 15:00S 29°39' E 031°33'510.2
2017-Apr-19 14:30S 29°36' E 031°37'9 9.1
2017-Apr-19 13:30S 29°31' E 031°45'3 5.6
2017-Apr-19 13:00S 29°29' E 031°48'1 1.5
2017-Apr-19 12:30S 29°29' E 031°47'1 1.4
2017-Apr-19 12:00S 29°30' E 031°46'1 1.4
2017-Apr-19 11:30S 29°30' E 031°46'1 1.3
2017-Apr-19 11:00S 29°31' E 031°45'1 1.3
2017-Apr-19 10:30S 29°31' E 031°45'1 1.2
2017-Apr-19 10:00S 29°31' E 031°44'1 1.3
2017-Apr-19 09:31S 29°32' E 031°44'1 1.3
2017-Apr-19 09:00S 29°32' E 031°43'1 1.3
2017-Apr-19 08:30S 29°32' E 031°42'1 1.3
2017-Apr-19 08:00S 29°33' E 031°42'1 1.3
2017-Apr-19 07:31S 29°33' E 031°42'1 1.3
2017-Apr-19 07:00S 29°34' E 031°41'1 1.4
2017-Apr-19 06:31S 29°35' E 031°41'1 1.4
2017-Apr-19 06:00S 29°35' E 031°40'1 1.4
2017-Apr-19 05:30S 29°36' E 031°40'1 1.3
2017-Apr-19 05:00S 29°36' E 031°39'1 1.3
2017-Apr-19 04:29S 29°36' E 031°38'1 1.3
2017-Apr-19 04:00S 29°37' E 031°38'1 1.3
2017-Apr-19 03:31S 29°38' E 031°38'1 1.3
2017-Apr-19 03:00S 29°38' E 031°38'1 1.3
2017-Apr-19 02:31S 29°39' E 031°37'1 1.3
2017-Apr-19 02:01S 29°39' E 031°37'1 1.5
2017-Apr-19 01:31S 29°40' E 031°36'1 1.6
2017-Apr-19 01:00S 29°40' E 031°35'1 2.0
2017-Apr-19 00:31S 29°41' E 031°34'1 2.1
2017-Apr-19 00:01S 29°41' E 031°33'1 2.2
2017-Apr-18 23:31S 29°42' E 031°32'1 2.1
2017-Apr-18 23:01S 29°43' E 031°31'1 2.1
2017-Apr-18 22:30S 29°43' E 031°30'1 2.4
2017-Apr-18 22:00S 29°44' E 031°29'1 2.7
2017-Apr-18 21:30S 29°45' E 031°28'1 2.6
2017-Apr-18 21:01S 29°46' E 031°27'4 7.7
2017-Apr-18 20:30S 29°45' E 031°22'4 7.8
2017-Apr-18 20:00S 29°42' E 031°20'4 8.6
2017-Apr-18 19:31S 29°38' E 031°16'1 2.0
2017-Apr-18 19:01S 29°39' E 031°17'1 1.8
2017-Apr-18 18:30S 29°40' E 031°18'1 2.1
2017-Apr-18 18:00S 29°41' E 031°19'1 2.2
2017-Apr-18 17:30S 29°42' E 031°19'1 2.2
2017-Apr-18 17:00S 29°43' E 031°20'1 2.6
2017-Apr-18 16:31S 29°44' E 031°20'1 2.9
2017-Apr-18 16:01S 29°45' E 031°20'2 3.1
2017-Apr-18 15:30S 29°47' E 031°21'1 2.1
2017-Apr-18 15:00S 29°46' E 031°21'3 5.6
2017-Apr-18 14:30S 29°43' E 031°21'6 6.5
2017-Apr-18 13:30S 29°39' E 031°15'1 1.6
2017-Apr-18 13:01S 29°39' E 031°16'1 2.2
2017-Apr-18 12:30S 29°40' E 031°17'1 2.2
2017-Apr-18 12:00S 29°41' E 031°18'1 2.1
2017-Apr-18 11:31S 29°42' E 031°19'1 2.2
2017-Apr-18 11:00S 29°43' E 031°19'1 2.6
2017-Apr-18 10:31S 29°44' E 031°19'1 2.7
2017-Apr-18 10:00S 29°45' E 031°19'1 1.5
2017-Apr-18 09:31S 29°46' E 031°20'1 2.5
2017-Apr-18 09:00S 29°45' E 031°21'1 1.8
2017-Apr-18 08:30S 29°45' E 031°20'4 8.2
2017-Apr-18 08:01S 29°47' E 031°16'4 8.6
2017-Apr-18 07:31S 29°47' E 031°11'0 0.4
2017-Apr-18 06:56S 29°47' E 031°11'0 0.0
2017-Apr-18 06:29S 29°47' E 031°11'0 0.0
2017-Apr-18 05:56S 29°47' E 031°11'0 0.0
2017-Apr-18 05:23S 29°47' E 031°11'0 0.0
2017-Apr-18 04:56S 29°47' E 031°11'0 0.1
2017-Apr-18 04:29S 29°47' E 031°11'0 0.0
2017-Apr-18 03:59S 29°47' E 031°11'0 0.0
2017-Apr-18 03:29S 29°47' E 031°11'0 0.1
2017-Apr-18 02:59S 29°47' E 031°11'0 0.0
2017-Apr-18 02:29S 29°47' E 031°11'0 0.0
2017-Apr-18 01:59S 29°47' E 031°11'0 0.0
2017-Apr-18 01:26S 29°47' E 031°11'0 0.0
2017-Apr-18 00:56S 29°47' E 031°11'0 0.0
2017-Apr-18 00:29S 29°47' E 031°11'0 0.0
2017-Apr-17 23:56S 29°47' E 031°11'0 0.0
2017-Apr-17 23:26S 29°47' E 031°11'0 0.0
2017-Apr-17 22:59S 29°47' E 031°11'0 0.0
2017-Apr-17 22:29S 29°47' E 031°11'0 0.0
2017-Apr-17 21:59S 29°47' E 031°11'0 0.0
2017-Apr-17 21:29S 29°47' E 031°11'0 0.0
2017-Apr-17 20:59S 29°47' E 031°11'0 0.0
2017-Apr-17 20:29S 29°47' E 031°11'0 0.0
2017-Apr-17 19:59S 29°47' E 031°11'0 0.0
2017-Apr-17 19:29S 29°47' E 031°11'0 0.0
2017-Apr-17 18:59S 29°47' E 031°11'0 0.0
2017-Apr-17 18:29S 29°47' E 031°11'0 0.0
2017-Apr-17 17:59S 29°47' E 031°11'0 0.0
2017-Apr-17 17:29S 29°47' E 031°11'0 0.0
2017-Apr-17 16:59S 29°47' E 031°11'0 0.0
2017-Apr-17 16:29S 29°47' E 031°11'0 0.0
2017-Apr-17 15:59S 29°47' E 031°11'0 0.0
2017-Apr-17 15:29S 29°47' E 031°11'0 0.0
2017-Apr-17 14:59S 29°47' E 031°11'0 0.1
2017-Apr-17 14:26S 29°47' E 031°11'0 0.0
2017-Apr-17 13:29S 29°47' E 031°11'0 0.0
2017-Apr-17 12:59S 29°47' E 031°11'0 0.0
2017-Apr-17 12:26S 29°47' E 031°11'0 0.1
2017-Apr-17 11:59S 29°47' E 031°11'0 0.1
2017-Apr-17 11:26S 29°47' E 031°11'0 0.0
2017-Apr-17 10:56S 29°47' E 031°11'0 0.1
2017-Apr-17 10:29S 29°47' E 031°11'0 0.1
2017-Apr-17 09:59S 29°47' E 031°11'0 0.0
2017-Apr-17 09:26S 29°47' E 031°11'0 0.1
2017-Apr-17 09:00S 29°47' E 031°11'0 0.4
2017-Apr-17 08:30S 29°47' E 031°11'1 2.4
2017-Apr-17 08:01S 29°48' E 031°10'3 6.2
2017-Apr-17 07:31S 29°50' E 031°07'510.0
2017-Apr-17 07:01S 29°53' E 031°03'1 1.4
2017-Apr-17 06:28S 29°53' E 031°02'0 0.0
2017-Apr-17 05:58S 29°53' E 031°02'0 0.0
2017-Apr-17 05:28S 29°53' E 031°02'0 0.0
2017-Apr-17 04:58S 29°53' E 031°02'0 0.0
2017-Apr-17 04:28S 29°53' E 031°02'0 0.0
2017-Apr-17 03:58S 29°53' E 031°02'0 0.0
2017-Apr-17 03:25S 29°53' E 031°02'0 0.0
2017-Apr-17 02:58S 29°53' E 031°02'0 0.0
2017-Apr-17 02:28S 29°53' E 031°02'0 0.0
2017-Apr-17 01:58S 29°53' E 031°02'0 0.0
2017-Apr-17 01:28S 29°53' E 031°02'0 0.0
2017-Apr-17 00:58S 29°53' E 031°02'0 0.0
2017-Apr-17 00:28S 29°53' E 031°02'0 0.0
2017-Apr-16 23:58S 29°53' E 031°02'0 0.0
2017-Apr-16 23:28S 29°53' E 031°02'0 0.0
2017-Apr-16 22:58S 29°53' E 031°02'0 0.0
2017-Apr-16 22:28S 29°53' E 031°02'0 0.0
2017-Apr-16 21:58S 29°53' E 031°02'0 0.0
2017-Apr-16 21:28S 29°53' E 031°02'0 0.0
2017-Apr-16 20:58S 29°53' E 031°02'0 0.0
2017-Apr-16 20:28S 29°53' E 031°02'0 0.0
2017-Apr-16 19:58S 29°53' E 031°02'0 0.0
2017-Apr-16 19:28S 29°53' E 031°02'0 0.0
2017-Apr-16 18:58S 29°53' E 031°02'0 0.0
2017-Apr-16 18:28S 29°53' E 031°02'0 0.0
2017-Apr-16 17:58S 29°53' E 031°02'0 0.0
2017-Apr-16 17:22S 29°53' E 031°02'0 0.0
2017-Apr-16 16:58S 29°53' E 031°02'0 0.0
2017-Apr-16 16:28S 29°53' E 031°02'0 0.0
2017-Apr-16 15:58S 29°53' E 031°02'0 0.0
2017-Apr-16 15:28S 29°53' E 031°02'0 0.0
2017-Apr-16 14:58S 29°53' E 031°02'0 0.0
2017-Apr-16 13:58S 29°53' E 031°02'0 0.0
2017-Apr-16 13:28S 29°53' E 031°02'0 0.0
2017-Apr-16 12:58S 29°53' E 031°02'0 0.0
2017-Apr-16 12:28S 29°53' E 031°02'0 0.0
2017-Apr-16 11:58S 29°53' E 031°02'0 0.0
2017-Apr-16 11:28S 29°53' E 031°02'0 0.0
2017-Apr-16 10:58S 29°53' E 031°02'0 0.0
2017-Apr-16 10:28S 29°53' E 031°02'0 0.0
2017-Apr-16 09:58S 29°53' E 031°02'0 0.0
2017-Apr-16 09:28S 29°53' E 031°02'0 0.0
2017-Apr-16 08:58S 29°53' E 031°02'0 0.0
2017-Apr-16 08:28S 29°53' E 031°02'0 0.0
2017-Apr-16 07:58S 29°53' E 031°02'0 0.0
2017-Apr-16 07:28S 29°53' E 031°02'0 0.0
2017-Apr-16 06:58S 29°53' E 031°02'0 0.0
2017-Apr-16 06:28S 29°53' E 031°02'0 0.0
2017-Apr-16 05:58S 29°53' E 031°02'0 0.0
2017-Apr-16 05:28S 29°53' E 031°02'0 0.0
2017-Apr-16 04:55S 29°53' E 031°02'0 0.0
2017-Apr-16 04:28S 29°53' E 031°02'0 0.0
2017-Apr-16 03:58S 29°53' E 031°02'0 0.0
2017-Apr-16 03:28S 29°53' E 031°02'0 0.0
2017-Apr-16 02:58S 29°53' E 031°02'0 0.0
2017-Apr-16 02:28S 29°53' E 031°02'0 0.0
2017-Apr-16 01:58S 29°53' E 031°02'0 0.0
2017-Apr-16 01:28S 29°53' E 031°02'0 0.0
2017-Apr-16 00:58S 29°53' E 031°02'0 0.0
2017-Apr-16 00:28S 29°53' E 031°02'0 0.0
2017-Apr-15 23:58S 29°53' E 031°02'0 0.0
2017-Apr-15 23:28S 29°53' E 031°02'0 0.0
2017-Apr-15 22:55S 29°53' E 031°02'0 0.0
2017-Apr-15 22:25S 29°53' E 031°02'0 0.0
2017-Apr-15 21:58S 29°53' E 031°02'0 0.0
2017-Apr-15 21:28S 29°53' E 031°02'0 0.0
2017-Apr-15 20:58S 29°53' E 031°02'0 0.0
2017-Apr-15 20:28S 29°53' E 031°02'0 0.0
2017-Apr-15 19:58S 29°53' E 031°02'0 0.0
2017-Apr-15 19:28S 29°53' E 031°02'0 0.0
2017-Apr-15 18:58S 29°53' E 031°02'0 0.0
2017-Apr-15 18:28S 29°53' E 031°02'0 0.0
2017-Apr-15 17:58S 29°53' E 031°02'0 0.0
2017-Apr-15 17:28S 29°53' E 031°02'0 0.0
2017-Apr-15 16:55S 29°53' E 031°02'0 0.0
2017-Apr-15 16:28S 29°53' E 031°02'0 0.0
2017-Apr-15 15:55S 29°53' E 031°02'0 0.0
2017-Apr-15 15:25S 29°53' E 031°02'0 0.0
2017-Apr-15 14:55S 29°53' E 031°02'0 0.0
2017-Apr-15 13:58S 29°53' E 031°02'0 0.0
2017-Apr-15 13:28S 29°53' E 031°02'0 0.0
2017-Apr-15 12:58S 29°53' E 031°02'0 0.0
2017-Apr-15 12:25S 29°53' E 031°02'0 0.0
2017-Apr-15 11:58S 29°53' E 031°02'0 0.0
2017-Apr-15 11:28S 29°53' E 031°02'0 0.0
2017-Apr-15 10:58S 29°53' E 031°02'0 0.0
2017-Apr-15 10:28S 29°53' E 031°02'0 0.0
2017-Apr-15 09:58S 29°53' E 031°02'0 0.0
2017-Apr-15 09:28S 29°53' E 031°02'0 0.0
2017-Apr-15 08:58S 29°53' E 031°02'0 0.0
2017-Apr-15 08:28S 29°53' E 031°02'0 0.0
2017-Apr-15 07:58S 29°53' E 031°02'0 0.0
2017-Apr-15 07:25S 29°53' E 031°02'0 0.0
2017-Apr-15 06:55S 29°53' E 031°02'0 0.0
2017-Apr-15 06:22S 29°53' E 031°02'0 0.0
2017-Apr-15 05:58S 29°53' E 031°02'0 0.0
2017-Apr-15 05:28S 29°53' E 031°02'0 0.0
2017-Apr-15 04:58S 29°53' E 031°02'0 0.0
2017-Apr-15 04:28S 29°53' E 031°02'0 0.0
2017-Apr-15 03:58S 29°53' E 031°02'0 0.0
2017-Apr-15 03:28S 29°53' E 031°02'0 0.0
2017-Apr-15 03:00S 29°53' E 031°02'0 0.0
2017-Apr-15 02:30S 29°53' E 031°02'0 0.0
2017-Apr-15 02:00S 29°53' E 031°02'0 0.0
2017-Apr-15 01:30S 29°53' E 031°02'0 0.0
2017-Apr-15 01:00S 29°53' E 031°02'0 0.0
2017-Apr-15 00:30S 29°53' E 031°02'0 0.0
2017-Apr-15 00:00S 29°53' E 031°02'0 0.0
2017-Apr-14 23:30S 29°53' E 031°02'1 2.4
2017-Apr-14 23:00S 29°53' E 031°03'4 7.3
2017-Apr-14 22:30S 29°50' E 031°06'2 3.3
2017-Apr-14 22:00S 29°48' E 031°07'4 7.8
2017-Apr-14 21:30S 29°46' E 031°11'0 0.2
2017-Apr-14 20:54S 29°46' E 031°11'0 0.0
2017-Apr-14 20:30S 29°46' E 031°11'0 0.0
2017-Apr-14 20:00S 29°46' E 031°11'0 0.0
2017-Apr-14 19:30S 29°46' E 031°11'0 0.0
2017-Apr-14 19:00S 29°46' E 031°11'0 0.0
2017-Apr-14 18:30S 29°46' E 031°11'0 0.0
2017-Apr-14 18:00S 29°46' E 031°11'0 0.0
2017-Apr-14 17:30S 29°46' E 031°11'0 0.0
2017-Apr-14 17:00S 29°46' E 031°11'0 0.0
2017-Apr-14 16:30S 29°46' E 031°11'0 0.0
2017-Apr-14 16:00S 29°46' E 031°11'0 0.0
2017-Apr-14 15:30S 29°46' E 031°11'0 0.0
2017-Apr-14 15:00S 29°46' E 031°11'0 0.0
2017-Apr-14 14:00S 29°46' E 031°11'0 0.0
2017-Apr-14 13:30S 29°46' E 031°11'0 0.0
2017-Apr-14 13:00S 29°46' E 031°11'0 0.0
2017-Apr-14 12:30S 29°46' E 031°11'0 0.0
2017-Apr-14 12:00S 29°46' E 031°11'0 0.0
2017-Apr-14 11:30S 29°46' E 031°11'0 0.0
2017-Apr-14 11:00S 29°46' E 031°11'0 0.0
2017-Apr-14 10:30S 29°46' E 031°11'0 0.0
2017-Apr-14 10:00S 29°46' E 031°11'0 0.0
2017-Apr-14 09:30S 29°46' E 031°11'0 0.0
2017-Apr-14 09:00S 29°46' E 031°11'0 0.0
2017-Apr-14 08:30S 29°46' E 031°11'0 0.0
2017-Apr-14 08:00S 29°46' E 031°11'0 0.0
2017-Apr-14 07:30S 29°46' E 031°11'0 0.0
2017-Apr-14 07:00S 29°46' E 031°11'0 0.0
2017-Apr-14 06:30S 29°46' E 031°11'0 0.0
2017-Apr-14 06:00S 29°46' E 031°11'0 0.0
2017-Apr-14 05:30S 29°46' E 031°11'0 0.0
2017-Apr-14 05:00S 29°46' E 031°11'0 0.0
2017-Apr-14 04:30S 29°46' E 031°11'0 0.0
2017-Apr-14 04:00S 29°46' E 031°11'0 0.0
2017-Apr-14 03:30S 29°46' E 031°11'0 0.0
2017-Apr-14 03:00S 29°46' E 031°11'0 0.0
2017-Apr-14 02:30S 29°46' E 031°11'0 0.0
2017-Apr-14 02:00S 29°46' E 031°11'0 0.0
2017-Apr-14 01:30S 29°46' E 031°11'0 0.0
2017-Apr-14 01:00S 29°46' E 031°11'0 0.0
2017-Apr-14 00:30S 29°46' E 031°11'0 0.0
2017-Apr-14 00:00S 29°46' E 031°11'0 0.0
2017-Apr-13 23:30S 29°46' E 031°11'0 0.0
2017-Apr-13 23:00S 29°46' E 031°11'0 0.0
2017-Apr-13 22:30S 29°46' E 031°11'0 0.1
2017-Apr-13 22:00S 29°46' E 031°11'0 0.1
2017-Apr-13 21:30S 29°46' E 031°11'0 0.1
2017-Apr-13 21:00S 29°46' E 031°11'0 0.1
2017-Apr-13 20:30S 29°46' E 031°11'0 0.0
2017-Apr-13 20:00S 29°46' E 031°11'0 0.0
2017-Apr-13 19:30S 29°46' E 031°11'0 0.0
2017-Apr-13 19:00S 29°46' E 031°11'0 0.1
2017-Apr-13 18:30S 29°46' E 031°11'0 0.0
2017-Apr-13 18:00S 29°46' E 031°11'0 0.0
2017-Apr-13 17:30S 29°46' E 031°11'0 0.0
2017-Apr-13 17:00S 29°46' E 031°11'0 0.1
2017-Apr-13 16:30S 29°46' E 031°11'0 0.1
2017-Apr-13 16:00S 29°46' E 031°11'0 0.1
2017-Apr-13 15:30S 29°46' E 031°11'0 0.0
2017-Apr-13 15:00S 29°46' E 031°11'0 0.0
2017-Apr-13 14:30S 29°46' E 031°11'0 0.1
2017-Apr-13 13:30S 29°46' E 031°11'0 0.0
2017-Apr-13 13:00S 29°46' E 031°11'0 0.1
2017-Apr-13 12:30S 29°46' E 031°11'0 0.0
2017-Apr-13 12:00S 29°46' E 031°11'0 0.0
2017-Apr-13 11:30S 29°46' E 031°11'0 0.0
2017-Apr-13 11:00S 29°46' E 031°11'0 0.0
2017-Apr-13 10:30S 29°46' E 031°11'  
Track history (hours):
 
Tides and Currents Weather Stations Pressure Air Temp Water Temp Dewpoint Dewpoint Depression Visibility Wind Speed Wind Dir Waves Ship Positions

Challenge Peak

Last reported at 2017-Apr-23 10:28 UTC. Time now 2017-May-01 06:13 UTC.
Position S 29°17' E 032°36'.

Length 182 m; draft 8.8 m.

Type: Tanker. MMSI: 566433000.

Date/timePositionNaut miles runAvg speedWind from/ knotsBaromVisibWave heightAir tempDewpointWater temp
2017-Apr-23 10:28S 29°17' E 032°36'510.5
2017-Apr-23 09:59S 29°21' E 032°32'510.4
2017-Apr-23 09:30S 29°25' E 032°29'510.1
2017-Apr-23 09:00S 29°29' E 032°25'11 9.5
2017-Apr-23 07:48S 29°36' E 032°15'3 9.9
2017-Apr-23 07:27S 29°37' E 032°11'7 9.9
2017-Apr-23 06:44S 29°38' E 032°03'310.0
2017-Apr-23 06:26S 29°39' E 031°59'4 9.6
2017-Apr-23 06:00S 29°40' E 031°55'4 9.0
2017-Apr-23 05:30S 29°41' E 031°50'4 8.8
2017-Apr-23 05:00S 29°42' E 031°45'510.1
2017-Apr-23 04:30S 29°43' E 031°39'713.3
2017-Apr-23 04:00S 29°45' E 031°32'713.7
2017-Apr-23 03:30S 29°46' E 031°24'611.5
2017-Apr-23 03:00S 29°48' E 031°18'510.8
2017-Apr-23 02:30S 29°49' E 031°12'510.8
2017-Apr-23 02:00S 29°50' E 031°06'4 8.2
2017-Apr-23 01:30S 29°53' E 031°02'0 0.2
2017-Apr-23 01:00S 29°53' E 031°02'0 0.0
2017-Apr-23 00:30S 29°53' E 031°02'0 0.0
2017-Apr-22 23:57S 29°53' E 031°02'0 0.0
2017-Apr-22 23:30S 29°53' E 031°02'0 0.0
2017-Apr-22 23:00S 29°53' E 031°02'0 0.0
2017-Apr-22 22:30S 29°53' E 031°02'0 0.0
2017-Apr-22 22:00S 29°53' E 031°02'0 0.0
2017-Apr-22 21:30S 29°53' E 031°02'0 0.0
2017-Apr-22 21:00S 29°53' E 031°02'0 0.0
2017-Apr-22 20:30S 29°53' E 031°02'0 0.0
2017-Apr-22 19:57S 29°53' E 031°02'0 0.0
2017-Apr-22 19:30S 29°53' E 031°02'0 0.0
2017-Apr-22 19:00S 29°53' E 031°02'0 0.0
2017-Apr-22 18:30S 29°53' E 031°02'0 0.0
2017-Apr-22 18:00S 29°53' E 031°02'0 0.0
2017-Apr-22 17:30S 29°53' E 031°02'0 0.0
2017-Apr-22 17:00S 29°53' E 031°02'0 0.0
2017-Apr-22 16:30S 29°53' E 031°02'0 0.0
2017-Apr-22 16:00S 29°53' E 031°02'0 0.0
2017-Apr-22 15:30S 29°53' E 031°02'0 0.0
2017-Apr-22 15:00S 29°53' E 031°02'0 0.0
2017-Apr-22 14:27S 29°53' E 031°02'0 0.0
2017-Apr-22 13:27S 29°53' E 031°02'0 0.0
2017-Apr-22 12:57S 29°53' E 031°02'0 0.0
2017-Apr-22 12:30S 29°53' E 031°02'0 0.0
2017-Apr-22 11:57S 29°53' E 031°02'0 0.0
2017-Apr-22 11:27S 29°53' E 031°02'0 0.0
2017-Apr-22 11:00S 29°53' E 031°02'0 0.0
2017-Apr-22 10:27S 29°53' E 031°02'0 0.0
2017-Apr-22 09:57S 29°53' E 031°02'0 0.0
2017-Apr-22 09:30S 29°53' E 031°02'0 0.0
2017-Apr-22 08:57S 29°53' E 031°02'0 0.0
2017-Apr-22 08:27S 29°53' E 031°02'0 0.0
2017-Apr-22 07:57S 29°53' E 031°02'0 0.0
2017-Apr-22 07:27S 29°53' E 031°02'0 0.0
2017-Apr-22 07:00S 29°53' E 031°02'0 0.0
2017-Apr-22 06:30S 29°53' E 031°02'0 0.0
2017-Apr-22 06:00S 29°53' E 031°02'0 0.0
2017-Apr-22 05:30S 29°53' E 031°02'0 0.0
2017-Apr-22 04:57S 29°53' E 031°02'0 0.0
2017-Apr-22 04:30S 29°53' E 031°02'0 0.0
2017-Apr-22 04:00S 29°53' E 031°02'0 0.0
2017-Apr-22 03:30S 29°53' E 031°02'0 0.0
2017-Apr-22 02:57S 29°53' E 031°02'0 0.0
2017-Apr-22 02:30S 29°53' E 031°02'0 0.0
2017-Apr-22 02:00S 29°53' E 031°02'0 0.0
2017-Apr-22 01:30S 29°53' E 031°02'0 0.0
2017-Apr-22 01:00S 29°53' E 031°02'0 0.0
2017-Apr-22 00:27S 29°53' E 031°02'0 0.0
2017-Apr-21 23:54S 29°53' E 031°02'0 0.0
2017-Apr-21 23:30S 29°53' E 031°02'0 0.0
2017-Apr-21 23:00S 29°53' E 031°02'0 0.0
2017-Apr-21 22:27S 29°53' E 031°02'0 0.0
2017-Apr-21 22:00S 29°53' E 031°02'0 0.0
2017-Apr-21 21:30S 29°53' E 031°02'0 0.0
2017-Apr-21 20:57S 29°53' E 031°02'0 0.0
2017-Apr-21 20:30S 29°53' E 031°02'0 0.0
2017-Apr-21 20:00S 29°53' E 031°02'0 0.0
2017-Apr-21 19:30S 29°53' E 031°02'0 0.0
2017-Apr-21 19:00S 29°53' E 031°02'0 0.0
2017-Apr-21 18:30S 29°53' E 031°02'0 0.0
2017-Apr-21 18:00S 29°53' E 031°02'0 0.0
2017-Apr-21 17:27S 29°53' E 031°02'0 0.0
2017-Apr-21 17:00S 29°53' E 031°02'0 0.0
2017-Apr-21 16:30S 29°53' E 031°02'0 0.0
2017-Apr-21 16:00S 29°53' E 031°02'0 0.0
2017-Apr-21 15:30S 29°53' E 031°02'0 0.0
2017-Apr-21 15:00S 29°53' E 031°02'0 0.0
2017-Apr-21 14:30S 29°53' E 031°02'0 0.0
2017-Apr-21 13:30S 29°53' E 031°02'0 0.0
2017-Apr-21 12:51S 29°53' E 031°02'0 0.0
2017-Apr-21 12:30S 29°53' E 031°02'0 0.0
2017-Apr-21 11:57S 29°53' E 031°02'0 0.0
2017-Apr-21 11:27S 29°53' E 031°02'0 0.0
2017-Apr-21 10:57S 29°53' E 031°02'0 0.0
2017-Apr-21 10:27S 29°53' E 031°02'0 0.0
2017-Apr-21 10:00S 29°53' E 031°02'0 0.2
2017-Apr-21 09:30S 29°53' E 031°02'1 2.4
2017-Apr-21 09:00S 29°53' E 031°03'5 9.2
2017-Apr-21 08:30S 29°49' E 031°06'1 3.0
2017-Apr-21 08:00S 29°47' E 031°07'1 1.5
2017-Apr-21 07:30S 29°47' E 031°07'1 1.8
2017-Apr-21 07:00S 29°46' E 031°08'0 0.7
2017-Apr-21 06:30S 29°46' E 031°08'1 1.1
2017-Apr-21 06:00S 29°45' E 031°09'1 1.0
2017-Apr-21 05:28S 29°45' E 031°09'0 0.1
2017-Apr-21 04:58S 29°45' E 031°09'0 0.1
2017-Apr-21 04:28S 29°45' E 031°09'0 0.0
2017-Apr-21 03:58S 29°45' E 031°09'0 0.0
2017-Apr-21 03:28S 29°45' E 031°09'0 0.0
2017-Apr-21 02:58S 29°45' E 031°09'0 0.0
2017-Apr-21 02:28S 29°45' E 031°09'0 0.0
2017-Apr-21 01:58S 29°45' E 031°09'0 0.0
2017-Apr-21 01:28S 29°45' E 031°09'0 0.0
2017-Apr-21 00:58S 29°45' E 031°09'0 0.0
2017-Apr-21 00:28S 29°45' E 031°09'0 0.1
2017-Apr-20 23:58S 29°45' E 031°09'0 0.1
2017-Apr-20 23:28S 29°45' E 031°09'0 0.0
2017-Apr-20 22:58S 29°45' E 031°09'0 0.0
2017-Apr-20 22:28S 29°45' E 031°09'0 0.1
2017-Apr-20 21:58S 29°45' E 031°09'0 0.0
2017-Apr-20 21:28S 29°45' E 031°09'0 0.0
2017-Apr-20 20:58S 29°45' E 031°09'0 0.0
2017-Apr-20 20:28S 29°45' E 031°09'0 0.0
2017-Apr-20 19:58S 29°45' E 031°09'0 0.1
2017-Apr-20 19:28S 29°45' E 031°09'0 0.1
2017-Apr-20 18:58S 29°45' E 031°09'0 0.0
2017-Apr-20 18:28S 29°45' E 031°09'0 0.1
2017-Apr-20 17:58S 29°45' E 031°09'0 0.1
2017-Apr-20 17:28S 29°45' E 031°09'0 0.0
2017-Apr-20 16:58S 29°45' E 031°09'0 0.0
2017-Apr-20 16:28S 29°45' E 031°09'0 0.0
2017-Apr-20 15:58S 29°45' E 031°09'0 0.0
2017-Apr-20 15:28S 29°45' E 031°09'0 0.1
2017-Apr-20 14:58S 29°45' E 031°09'0 0.0
2017-Apr-20 13:58S 29°45' E 031°09'0 0.0
2017-Apr-20 13:30S 29°45' E 031°09'0 0.6
2017-Apr-20 13:00S 29°45' E 031°09'2 3.6
2017-Apr-20 12:30S 29°45' E 031°11'3 7.0
2017-Apr-20 12:00S 29°44' E 031°15'4 8.4
2017-Apr-20 11:30S 29°41' E 031°18'4 8.3
2017-Apr-20 11:00S 29°38' E 031°22'4 8.3
2017-Apr-20 10:30S 29°36' E 031°26'4 8.0
2017-Apr-20 10:00S 29°34' E 031°30'4 7.9
2017-Apr-20 09:30S 29°32' E 031°34'4 7.5
2017-Apr-20 09:00S 29°30' E 031°37'0 0.9
2017-Apr-20 08:30S 29°30' E 031°37'1 1.6
2017-Apr-20 08:00S 29°31' E 031°36'1 1.7
2017-Apr-20 07:30S 29°31' E 031°36'1 1.8
2017-Apr-20 07:00S 29°32' E 031°35'1 1.8
2017-Apr-20 06:30S 29°32' E 031°34'1 1.9
2017-Apr-20 06:00S 29°33' E 031°33'1 1.9
2017-Apr-20 05:30S 29°34' E 031°32'1 1.9
2017-Apr-20 05:01S 29°34' E 031°32'1 1.8
2017-Apr-20 04:30S 29°35' E 031°31'1 1.7
2017-Apr-20 04:00S 29°35' E 031°30'1 1.7
2017-Apr-20 03:30S 29°36' E 031°29'1 1.7
2017-Apr-20 03:00S 29°36' E 031°29'1 1.7
2017-Apr-20 02:29S 29°37' E 031°28'1 1.5
2017-Apr-20 02:00S 29°38' E 031°27'1 1.5
2017-Apr-20 01:30S 29°38' E 031°27'1 1.3
2017-Apr-20 01:00S 29°39' E 031°26'1 1.2
2017-Apr-20 00:29S 29°39' E 031°26'1 1.2
2017-Apr-19 23:59S 29°40' E 031°25'1 1.0
2017-Apr-19 23:29S 29°40' E 031°25'1 1.0
2017-Apr-19 22:59S 29°40' E 031°25'1 1.1
2017-Apr-19 22:29S 29°41' E 031°24'1 1.0
2017-Apr-19 21:59S 29°41' E 031°24'1 1.1
2017-Apr-19 21:29S 29°42' E 031°23'1 1.2
2017-Apr-19 20:59S 29°42' E 031°23'1 1.2
2017-Apr-19 20:29S 29°43' E 031°23'1 1.2
2017-Apr-19 19:59S 29°43' E 031°23'1 1.3
2017-Apr-19 19:29S 29°44' E 031°23'1 1.5
2017-Apr-19 19:00S 29°45' E 031°23'1 1.5
2017-Apr-19 18:30S 29°45' E 031°23'1 1.5
2017-Apr-19 18:00S 29°46' E 031°22'1 1.5
2017-Apr-19 17:30S 29°47' E 031°22'1 1.5
2017-Apr-19 17:00S 29°47' E 031°22'1 1.5
2017-Apr-19 16:30S 29°48' E 031°21'3 6.2
2017-Apr-19 16:00S 29°46' E 031°24'510.3
2017-Apr-19 15:31S 29°43' E 031°28'510.1
2017-Apr-19 15:00S 29°39' E 031°33'510.2
2017-Apr-19 14:30S 29°36' E 031°37'9 9.1
2017-Apr-19 13:30S 29°31' E 031°45'3 5.6
2017-Apr-19 13:00S 29°29' E 031°48'1 1.5
2017-Apr-19 12:30S 29°29' E 031°47'1 1.4
2017-Apr-19 12:00S 29°30' E 031°46'1 1.4
2017-Apr-19 11:30S 29°30' E 031°46'1 1.3
2017-Apr-19 11:00S 29°31' E 031°45'1 1.3
2017-Apr-19 10:30S 29°31' E 031°45'1 1.2
2017-Apr-19 10:00S 29°31' E 031°44'1 1.3
2017-Apr-19 09:31S 29°32' E 031°44'1 1.3
2017-Apr-19 09:00S 29°32' E 031°43'1 1.3
2017-Apr-19 08:30S 29°32' E 031°42'1 1.3
2017-Apr-19 08:00S 29°33' E 031°42'1 1.3
2017-Apr-19 07:31S 29°33' E 031°42'1 1.3
2017-Apr-19 07:00S 29°34' E 031°41'1 1.4
2017-Apr-19 06:31S 29°35' E 031°41'1 1.4
2017-Apr-19 06:00S 29°35' E 031°40'1 1.4
2017-Apr-19 05:30S 29°36' E 031°40'1 1.3
2017-Apr-19 05:00S 29°36' E 031°39'1 1.3
2017-Apr-19 04:29S 29°36' E 031°38'1 1.3
2017-Apr-19 04:00S 29°37' E 031°38'1 1.3
2017-Apr-19 03:31S 29°38' E 031°38'1 1.3
2017-Apr-19 03:00S 29°38' E 031°38'1 1.3
2017-Apr-19 02:31S 29°39' E 031°37'1 1.3
2017-Apr-19 02:01S 29°39' E 031°37'1 1.5
2017-Apr-19 01:31S 29°40' E 031°36'1 1.6
2017-Apr-19 01:00S 29°40' E 031°35'1 2.0
2017-Apr-19 00:31S 29°41' E 031°34'1 2.1
2017-Apr-19 00:01S 29°41' E 031°33'1 2.2
2017-Apr-18 23:31S 29°42' E 031°32'1 2.1
2017-Apr-18 23:01S 29°43' E 031°31'1 2.1
2017-Apr-18 22:30S 29°43' E 031°30'1 2.4
2017-Apr-18 22:00S 29°44' E 031°29'1 2.7
2017-Apr-18 21:30S 29°45' E 031°28'1 2.6
2017-Apr-18 21:01S 29°46' E 031°27'4 7.7
2017-Apr-18 20:30S 29°45' E 031°22'4 7.8
2017-Apr-18 20:00S 29°42' E 031°20'4 8.6
2017-Apr-18 19:31S 29°38' E 031°16'1 2.0
2017-Apr-18 19:01S 29°39' E 031°17'1 1.8
2017-Apr-18 18:30S 29°40' E 031°18'1 2.1
2017-Apr-18 18:00S 29°41' E 031°19'1 2.2
2017-Apr-18 17:30S 29°42' E 031°19'1 2.2
2017-Apr-18 17:00S 29°43' E 031°20'1 2.6
2017-Apr-18 16:31S 29°44' E 031°20'1 2.9
2017-Apr-18 16:01S 29°45' E 031°20'2 3.1
2017-Apr-18 15:30S 29°47' E 031°21'1 2.1
2017-Apr-18 15:00S 29°46' E 031°21'3 5.6
2017-Apr-18 14:30S 29°43' E 031°21'6 6.5
2017-Apr-18 13:30S 29°39' E 031°15'1 1.6
2017-Apr-18 13:01S 29°39' E 031°16'1 2.2
2017-Apr-18 12:30S 29°40' E 031°17'1 2.2
2017-Apr-18 12:00S 29°41' E 031°18'1 2.1
2017-Apr-18 11:31S 29°42' E 031°19'1 2.2
2017-Apr-18 11:00S 29°43' E 031°19'1 2.6
2017-Apr-18 10:31S 29°44' E 031°19'1 2.7
2017-Apr-18 10:00S 29°45' E 031°19'1 1.5
2017-Apr-18 09:31S 29°46' E 031°20'1 2.5
2017-Apr-18 09:00S 29°45' E 031°21'1 1.8
2017-Apr-18 08:30S 29°45' E 031°20'4 8.2
2017-Apr-18 08:01S 29°47' E 031°16'4 8.6
2017-Apr-18 07:31S 29°47' E 031°11'0 0.4
2017-Apr-18 06:56S 29°47' E 031°11'0 0.0
2017-Apr-18 06:29S 29°47' E 031°11'0 0.0
2017-Apr-18 05:56S 29°47' E 031°11'0 0.0
2017-Apr-18 05:23S 29°47' E 031°11'0 0.0
2017-Apr-18 04:56S 29°47' E 031°11'0 0.1
2017-Apr-18 04:29S 29°47' E 031°11'0 0.0
2017-Apr-18 03:59S 29°47' E 031°11'0 0.0
2017-Apr-18 03:29S 29°47' E 031°11'0 0.1
2017-Apr-18 02:59S 29°47' E 031°11'0 0.0
2017-Apr-18 02:29S 29°47' E 031°11'0 0.0
2017-Apr-18 01:59S 29°47' E 031°11'0 0.0
2017-Apr-18 01:26S 29°47' E 031°11'0 0.0
2017-Apr-18 00:56S 29°47' E 031°11'0 0.0
2017-Apr-18 00:29S 29°47' E 031°11'0 0.0
2017-Apr-17 23:56S 29°47' E 031°11'0 0.0
2017-Apr-17 23:26S 29°47' E 031°11'0 0.0
2017-Apr-17 22:59S 29°47' E 031°11'0 0.0
2017-Apr-17 22:29S 29°47' E 031°11'0 0.0
2017-Apr-17 21:59S 29°47' E 031°11'0 0.0
2017-Apr-17 21:29S 29°47' E 031°11'0 0.0
2017-Apr-17 20:59S 29°47' E 031°11'0 0.0
2017-Apr-17 20:29S 29°47' E 031°11'0 0.0
2017-Apr-17 19:59S 29°47' E 031°11'0 0.0
2017-Apr-17 19:29S 29°47' E 031°11'0 0.0
2017-Apr-17 18:59S 29°47' E 031°11'0 0.0
2017-Apr-17 18:29S 29°47' E 031°11'0 0.0
2017-Apr-17 17:59S 29°47' E 031°11'0 0.0
2017-Apr-17 17:29S 29°47' E 031°11'0 0.0
2017-Apr-17 16:59S 29°47' E 031°11'0 0.0
2017-Apr-17 16:29S 29°47' E 031°11'0 0.0
2017-Apr-17 15:59S 29°47' E 031°11'0 0.0
2017-Apr-17 15:29S 29°47' E 031°11'0 0.0
2017-Apr-17 14:59S 29°47' E 031°11'0 0.1
2017-Apr-17 14:26S 29°47' E 031°11'0 0.0
2017-Apr-17 13:29S 29°47' E 031°11'0 0.0
2017-Apr-17 12:59S 29°47' E 031°11'0 0.0
2017-Apr-17 12:26S 29°47' E 031°11'0 0.1
2017-Apr-17 11:59S 29°47' E 031°11'0 0.1
2017-Apr-17 11:26S 29°47' E 031°11'0 0.0
2017-Apr-17 10:56S 29°47' E 031°11'0 0.1
2017-Apr-17 10:29S 29°47' E 031°11'0 0.1
2017-Apr-17 09:59S 29°47' E 031°11'0 0.0
2017-Apr-17 09:26S 29°47' E 031°11'0 0.1
2017-Apr-17 09:00S 29°47' E 031°11'0 0.4
2017-Apr-17 08:30S 29°47' E 031°11'1 2.4
2017-Apr-17 08:01S 29°48' E 031°10'3 6.2
2017-Apr-17 07:31S 29°50' E 031°07'510.0
2017-Apr-17 07:01S 29°53' E 031°03'1 1.4
2017-Apr-17 06:28S 29°53' E 031°02'0 0.0
2017-Apr-17 05:58S 29°53' E 031°02'0 0.0
2017-Apr-17 05:28S 29°53' E 031°02'0 0.0
2017-Apr-17 04:58S 29°53' E 031°02'0 0.0
2017-Apr-17 04:28S 29°53' E 031°02'0 0.0
2017-Apr-17 03:58S 29°53' E 031°02'0 0.0
2017-Apr-17 03:25S 29°53' E 031°02'0 0.0
2017-Apr-17 02:58S 29°53' E 031°02'0 0.0
2017-Apr-17 02:28S 29°53' E 031°02'0 0.0
2017-Apr-17 01:58S 29°53' E 031°02'0 0.0
2017-Apr-17 01:28S 29°53' E 031°02'0 0.0
2017-Apr-17 00:58S 29°53' E 031°02'0 0.0
2017-Apr-17 00:28S 29°53' E 031°02'0 0.0
2017-Apr-16 23:58S 29°53' E 031°02'0 0.0
2017-Apr-16 23:28S 29°53' E 031°02'0 0.0
2017-Apr-16 22:58S 29°53' E 031°02'0 0.0
2017-Apr-16 22:28S 29°53' E 031°02'0 0.0
2017-Apr-16 21:58S 29°53' E 031°02'0 0.0
2017-Apr-16 21:28S 29°53' E 031°02'0 0.0
2017-Apr-16 20:58S 29°53' E 031°02'0 0.0
2017-Apr-16 20:28S 29°53' E 031°02'0 0.0
2017-Apr-16 19:58S 29°53' E 031°02'0 0.0
2017-Apr-16 19:28S 29°53' E 031°02'0 0.0
2017-Apr-16 18:58S 29°53' E 031°02'0 0.0
2017-Apr-16 18:28S 29°53' E 031°02'0 0.0
2017-Apr-16 17:58S 29°53' E 031°02'0 0.0
2017-Apr-16 17:22S 29°53' E 031°02'0 0.0
2017-Apr-16 16:58S 29°53' E 031°02'0 0.0
2017-Apr-16 16:28S 29°53' E 031°02'0 0.0
2017-Apr-16 15:58S 29°53' E 031°02'0 0.0
2017-Apr-16 15:28S 29°53' E 031°02'0 0.0
2017-Apr-16 14:58S 29°53' E 031°02'0 0.0
2017-Apr-16 13:58S 29°53' E 031°02'0 0.0
2017-Apr-16 13:28S 29°53' E 031°02'0 0.0
2017-Apr-16 12:58S 29°53' E 031°02'0 0.0
2017-Apr-16 12:28S 29°53' E 031°02'0 0.0
2017-Apr-16 11:58S 29°53' E 031°02'0 0.0
2017-Apr-16 11:28S 29°53' E 031°02'0 0.0
2017-Apr-16 10:58S 29°53' E 031°02'0 0.0
2017-Apr-16 10:28S 29°53' E 031°02'0 0.0
2017-Apr-16 09:58S 29°53' E 031°02'0 0.0
2017-Apr-16 09:28S 29°53' E 031°02'0 0.0
2017-Apr-16 08:58S 29°53' E 031°02'0 0.0
2017-Apr-16 08:28S 29°53' E 031°02'0 0.0
2017-Apr-16 07:58S 29°53' E 031°02'0 0.0
2017-Apr-16 07:28S 29°53' E 031°02'0 0.0
2017-Apr-16 06:58S 29°53' E 031°02'0 0.0
2017-Apr-16 06:28S 29°53' E 031°02'0 0.0
2017-Apr-16 05:58S 29°53' E 031°02'0 0.0
2017-Apr-16 05:28S 29°53' E 031°02'0 0.0
2017-Apr-16 04:55S 29°53' E 031°02'0 0.0
2017-Apr-16 04:28S 29°53' E 031°02'0 0.0
2017-Apr-16 03:58S 29°53' E 031°02'0 0.0
2017-Apr-16 03:28S 29°53' E 031°02'0 0.0
2017-Apr-16 02:58S 29°53' E 031°02'0 0.0
2017-Apr-16 02:28S 29°53' E 031°02'0 0.0
2017-Apr-16 01:58S 29°53' E 031°02'0 0.0
2017-Apr-16 01:28S 29°53' E 031°02'0 0.0
2017-Apr-16 00:58S 29°53' E 031°02'0 0.0
2017-Apr-16 00:28S 29°53' E 031°02'0 0.0
2017-Apr-15 23:58S 29°53' E 031°02'0 0.0
2017-Apr-15 23:28S 29°53' E 031°02'0 0.0
2017-Apr-15 22:55S 29°53' E 031°02'0 0.0
2017-Apr-15 22:25S 29°53' E 031°02'0 0.0
2017-Apr-15 21:58S 29°53' E 031°02'0 0.0
2017-Apr-15 21:28S 29°53' E 031°02'0 0.0
2017-Apr-15 20:58S 29°53' E 031°02'0 0.0
2017-Apr-15 20:28S 29°53' E 031°02'0 0.0
2017-Apr-15 19:58S 29°53' E 031°02'0 0.0
2017-Apr-15 19:28S 29°53' E 031°02'0 0.0
2017-Apr-15 18:58S 29°53' E 031°02'0 0.0
2017-Apr-15 18:28S 29°53' E 031°02'0 0.0
2017-Apr-15 17:58S 29°53' E 031°02'0 0.0
2017-Apr-15 17:28S 29°53' E 031°02'0 0.0
2017-Apr-15 16:55S 29°53' E 031°02'0 0.0
2017-Apr-15 16:28S 29°53' E 031°02'0 0.0
2017-Apr-15 15:55S 29°53' E 031°02'0 0.0
2017-Apr-15 15:25S 29°53' E 031°02'0 0.0
2017-Apr-15 14:55S 29°53' E 031°02'0 0.0
2017-Apr-15 13:58S 29°53' E 031°02'0 0.0
2017-Apr-15 13:28S 29°53' E 031°02'0 0.0
2017-Apr-15 12:58S 29°53' E 031°02'0 0.0
2017-Apr-15 12:25S 29°53' E 031°02'0 0.0
2017-Apr-15 11:58S 29°53' E 031°02'0 0.0
2017-Apr-15 11:28S 29°53' E 031°02'0 0.0
2017-Apr-15 10:58S 29°53' E 031°02'0 0.0
2017-Apr-15 10:28S 29°53' E 031°02'0 0.0
2017-Apr-15 09:58S 29°53' E 031°02'0 0.0
2017-Apr-15 09:28S 29°53' E 031°02'0 0.0
2017-Apr-15 08:58S 29°53' E 031°02'0 0.0
2017-Apr-15 08:28S 29°53' E 031°02'0 0.0
2017-Apr-15 07:58S 29°53' E 031°02'0 0.0
2017-Apr-15 07:25S 29°53' E 031°02'0 0.0
2017-Apr-15 06:55S 29°53' E 031°02'0 0.0
2017-Apr-15 06:22S 29°53' E 031°02'0 0.0
2017-Apr-15 05:58S 29°53' E 031°02'0 0.0
2017-Apr-15 05:28S 29°53' E 031°02'0 0.0
2017-Apr-15 04:58S 29°53' E 031°02'0 0.0
2017-Apr-15 04:28S 29°53' E 031°02'0 0.0
2017-Apr-15 03:58S 29°53' E 031°02'0 0.0
2017-Apr-15 03:28S 29°53' E 031°02'0 0.0
2017-Apr-15 03:00S 29°53' E 031°02'0 0.0
2017-Apr-15 02:30S 29°53' E 031°02'0 0.0
2017-Apr-15 02:00S 29°53' E 031°02'0 0.0
2017-Apr-15 01:30S 29°53' E 031°02'0 0.0
2017-Apr-15 01:00S 29°53' E 031°02'0 0.0
2017-Apr-15 00:30S 29°53' E 031°02'0 0.0
2017-Apr-15 00:00S 29°53' E 031°02'0 0.0
2017-Apr-14 23:30S 29°53' E 031°02'1 2.4
2017-Apr-14 23:00S 29°53' E 031°03'4 7.3
2017-Apr-14 22:30S 29°50' E 031°06'2 3.3
2017-Apr-14 22:00S 29°48' E 031°07'4 7.8
2017-Apr-14 21:30S 29°46' E 031°11'0 0.2
2017-Apr-14 20:54S 29°46' E 031°11'0 0.0
2017-Apr-14 20:30S 29°46' E 031°11'0 0.0
2017-Apr-14 20:00S 29°46' E 031°11'0 0.0
2017-Apr-14 19:30S 29°46' E 031°11'0 0.0
2017-Apr-14 19:00S 29°46' E 031°11'0 0.0
2017-Apr-14 18:30S 29°46' E 031°11'0 0.0
2017-Apr-14 18:00S 29°46' E 031°11'0 0.0
2017-Apr-14 17:30S 29°46' E 031°11'0 0.0
2017-Apr-14 17:00S 29°46' E 031°11'0 0.0
2017-Apr-14 16:30S 29°46' E 031°11'0 0.0
2017-Apr-14 16:00S 29°46' E 031°11'0 0.0
2017-Apr-14 15:30S 29°46' E 031°11'0 0.0
2017-Apr-14 15:00S 29°46' E 031°11'0 0.0
2017-Apr-14 14:00S 29°46' E 031°11'0 0.0
2017-Apr-14 13:30S 29°46' E 031°11'0 0.0
2017-Apr-14 13:00S 29°46' E 031°11'0 0.0
2017-Apr-14 12:30S 29°46' E 031°11'0 0.0
2017-Apr-14 12:00S 29°46' E 031°11'0 0.0
2017-Apr-14 11:30S 29°46' E 031°11'0 0.0
2017-Apr-14 11:00S 29°46' E 031°11'0 0.0
2017-Apr-14 10:30S 29°46' E 031°11'0 0.0
2017-Apr-14 10:00S 29°46' E 031°11'0 0.0
2017-Apr-14 09:30S 29°46' E 031°11'0 0.0
2017-Apr-14 09:00S 29°46' E 031°11'0 0.0
2017-Apr-14 08:30S 29°46' E 031°11'0 0.0
2017-Apr-14 08:00S 29°46' E 031°11'0 0.0
2017-Apr-14 07:30S 29°46' E 031°11'0 0.0
2017-Apr-14 07:00S 29°46' E 031°11'0 0.0
2017-Apr-14 06:30S 29°46' E 031°11'0 0.0
2017-Apr-14 06:00S 29°46' E 031°11'0 0.0
2017-Apr-14 05:30S 29°46' E 031°11'0 0.0
2017-Apr-14 05:00S 29°46' E 031°11'0 0.0
2017-Apr-14 04:30S 29°46' E 031°11'0 0.0
2017-Apr-14 04:00S 29°46' E 031°11'0 0.0
2017-Apr-14 03:30S 29°46' E 031°11'0 0.0
2017-Apr-14 03:00S 29°46' E 031°11'0 0.0
2017-Apr-14 02:30S 29°46' E 031°11'0 0.0
2017-Apr-14 02:00S 29°46' E 031°11'0 0.0
2017-Apr-14 01:30S 29°46' E 031°11'0 0.0
2017-Apr-14 01:00S 29°46' E 031°11'0 0.0
2017-Apr-14 00:30S 29°46' E 031°11'0 0.0
2017-Apr-14 00:00S 29°46' E 031°11'0 0.0
2017-Apr-13 23:30S 29°46' E 031°11'0 0.0
2017-Apr-13 23:00S 29°46' E 031°11'0 0.0
2017-Apr-13 22:30S 29°46' E 031°11'0 0.1
2017-Apr-13 22:00S 29°46' E 031°11'0 0.1
2017-Apr-13 21:30S 29°46' E 031°11'0 0.1
2017-Apr-13 21:00S 29°46' E 031°11'0 0.1
2017-Apr-13 20:30S 29°46' E 031°11'0 0.0
2017-Apr-13 20:00S 29°46' E 031°11'0 0.0
2017-Apr-13 19:30S 29°46' E 031°11'0 0.0
2017-Apr-13 19:00S 29°46' E 031°11'0 0.1
2017-Apr-13 18:30S 29°46' E 031°11'0 0.0
2017-Apr-13 18:00S 29°46' E 031°11'0 0.0
2017-Apr-13 17:30S 29°46' E 031°11'0 0.0
2017-Apr-13 17:00S 29°46' E 031°11'0 0.1
2017-Apr-13 16:30S 29°46' E 031°11'0 0.1
2017-Apr-13 16:00S 29°46' E 031°11'0 0.1
2017-Apr-13 15:30S 29°46' E 031°11'0 0.0
2017-Apr-13 15:00S 29°46' E 031°11'0 0.0
2017-Apr-13 14:30S 29°46' E 031°11'0 0.1
2017-Apr-13 13:30S 29°46' E 031°11'0 0.0
2017-Apr-13 13:00S 29°46' E 031°11'0 0.1
2017-Apr-13 12:30S 29°46' E 031°11'0 0.0
2017-Apr-13 12:00S 29°46' E 031°11'0 0.0
2017-Apr-13 11:30S 29°46' E 031°11'0 0.0
2017-Apr-13 11:00S 29°46' E 031°11'0 0.0
2017-Apr-13 10:30S 29°46' E 031°11'  

Dump ship's entire track history